Time;durP1;ratioP1;P1;durP2;ratioP2;P2;SDS_P1;SDS_P2;PMS_P1;PMS_P2;Temp;Humidity;BMP_temperature;BMP_pressure;BME280_temperature;BME280_humidity;BME280_pressure;Samples;Min_cycle;Max_cycle;Signal;HPM_P1;HPM_P2
2023/09/12 00:00:14;;;;;;;8.75;3.35;;;17.90;99.90;;;;;;4193888;28;20040;-59
2023/09/12 00:02:15;;;;;;;6.40;3.35;;;17.90;99.90;;;;;;4193944;28;20034;-60
2023/09/12 00:04:16;;;;;;;5.07;3.08;;;17.90;99.90;;;;;;4194386;28;20048;-62
2023/09/12 00:06:17;;;;;;;5.68;3.28;;;17.90;99.90;;;;;;4192524;28;20090;-60
2023/09/12 00:08:19;;;;;;;7.80;3.63;;;17.90;99.90;;;;;;4193720;28;20090;-58
2023/09/12 00:10:20;;;;;;;9.60;3.30;;;17.80;99.90;;;;;;4192969;28;20040;-59
2023/09/12 00:12:24;;;;;;;6.70;3.03;;;17.80;99.90;;;;;;4194583;28;20078;-60
2023/09/12 00:14:25;;;;;;;6.43;3.10;;;17.80;99.90;;;;;;4192163;28;20074;-59
2023/09/12 00:16:26;;;;;;;6.00;3.38;;;17.80;99.90;;;;;;4193275;28;20094;-60
2023/09/12 00:18:28;;;;;;;6.80;3.45;;;17.80;99.90;;;;;;4193347;28;20076;-60
2023/09/12 00:20:29;;;;;;;7.55;3.00;;;17.80;99.90;;;;;;4192491;28;20036;-61
2023/09/12 00:22:30;;;;;;;8.93;3.63;;;17.80;99.90;;;;;;4192780;28;20590;-59
2023/09/12 00:24:31;;;;;;;8.45;3.03;;;17.80;99.90;;;;;;4192898;28;20040;-60
2023/09/12 00:26:33;;;;;;;8.75;3.42;;;17.70;99.90;;;;;;4193406;28;20851;-60
2023/09/12 00:28:34;;;;;;;7.07;3.85;;;17.70;99.90;;;;;;4192073;28;20040;-61
2023/09/12 00:30:35;;;;;;;8.68;3.50;;;17.70;99.90;;;;;;4194543;28;20070;-59
2023/09/12 00:32:36;;;;;;;12.85;4.10;;;17.70;99.90;;;;;;4192564;28;20439;-62
2023/09/12 00:34:37;;;;;;;5.57;3.03;;;17.60;99.90;;;;;;4193386;28;20066;-59
2023/09/12 00:36:38;;;;;;;5.57;3.50;;;17.60;99.90;;;;;;4192929;28;20033;-60
2023/09/12 00:38:39;;;;;;;3.72;2.70;;;17.60;99.90;;;;;;4194272;28;20036;-62
2023/09/12 00:40:41;;;;;;;5.47;2.78;;;17.60;99.90;;;;;;4174473;28;20059;-62
2023/09/12 00:42:42;;;;;;;9.27;3.55;;;17.50;99.90;;;;;;4193963;28;20710;-58
2023/09/12 00:44:43;;;;;;;7.70;3.70;;;17.60;99.90;;;;;;4193257;28;20066;-59
2023/09/12 00:46:45;;;;;;;7.00;3.95;;;17.50;99.90;;;;;;4194080;28;20082;-60
2023/09/12 00:48:48;;;;;;;6.80;3.17;;;17.50;99.90;;;;;;4192627;28;20020;-58
2023/09/12 00:50:51;;;;;;;4.00;2.95;;;17.50;99.90;;;;;;4192904;28;20086;-59
2023/09/12 00:52:53;;;;;;;6.68;3.33;;;17.50;99.90;;;;;;4192619;28;20032;-60
2023/09/12 00:54:55;;;;;;;10.30;4.20;;;17.50;99.90;;;;;;4192606;28;20392;-62
2023/09/12 00:56:56;;;;;;;6.07;3.10;;;17.50;99.90;;;;;;4193771;28;20431;-62
2023/09/12 00:58:58;;;;;;;9.27;3.53;;;17.50;99.90;;;;;;4192673;28;20113;-61
2023/09/12 01:00:59;;;;;;;8.90;3.70;;;17.40;99.90;;;;;;4194388;28;20037;-61
2023/09/12 01:03:00;;;;;;;5.05;3.28;;;17.40;99.90;;;;;;4191813;28;20445;-60
2023/09/12 01:05:02;;;;;;;8.27;3.88;;;17.40;99.90;;;;;;4193711;28;20040;-60
2023/09/12 01:07:04;;;;;;;5.95;3.28;;;17.30;99.90;;;;;;4191923;28;20459;-60
2023/09/12 01:09:05;;;;;;;4.55;3.15;;;17.30;99.90;;;;;;4194240;28;20032;-61
2023/09/12 01:11:07;;;;;;;6.07;3.60;;;17.30;99.90;;;;;;4192790;28;20037;-60
2023/09/12 01:13:08;;;;;;;5.85;3.78;;;17.20;99.90;;;;;;4193789;28;20029;-61
2023/09/12 01:15:13;;;;;;;7.15;3.70;;;17.20;99.90;;;;;;4193154;28;20070;-62
2023/09/12 01:17:14;;;;;;;7.93;3.88;;;17.20;99.90;;;;;;4192820;28;20032;-61
2023/09/12 01:19:17;;;;;;;7.15;3.45;;;17.20;99.90;;;;;;4192847;28;20045;-61
2023/09/12 01:21:27;;;;;;;6.95;3.35;;;17.20;99.90;;;;;;4192982;28;20048;-61
2023/09/12 01:23:34;;;;;;;7.38;3.10;;;17.20;99.90;;;;;;4193106;28;20482;-61
2023/09/12 01:25:45;;;;;;;8.20;3.65;;;17.10;99.90;;;;;;4192748;28;20086;-61
2023/09/12 01:27:50;;;;;;;5.88;3.58;;;17.20;99.90;;;;;;4193085;28;20078;-62
2023/09/12 01:30:00;;;;;;;5.47;3.40;;;17.20;99.90;;;;;;4191177;28;20086;-64
2023/09/12 01:32:03;;;;;;;10.63;3.70;;;17.10;99.90;;;;;;4193163;28;20174;-60
2023/09/12 01:34:11;;;;;;;8.40;3.70;;;17.10;99.90;;;;;;4196624;28;20499;-61
2023/09/12 01:36:12;;;;;;;4.97;3.10;;;17.10;99.90;;;;;;4196013;28;20501;-59
2023/09/12 01:38:14;;;;;;;5.10;3.83;;;17.10;99.90;;;;;;4195403;28;20048;-62
2023/09/12 01:40:16;;;;;;;6.32;3.38;;;17.00;99.90;;;;;;4196284;28;20047;-62
2023/09/12 01:42:22;;;;;;;6.18;3.00;;;17.00;99.90;;;;;;4195628;28;20037;-62
2023/09/12 01:44:24;;;;;;;10.57;3.53;;;17.00;99.90;;;;;;4196682;28;20041;-60
2023/09/12 01:46:27;;;;;;;5.65;3.40;;;17.00;99.90;;;;;;4196019;28;20094;-59
2023/09/12 01:48:33;;;;;;;5.65;3.50;;;17.00;99.90;;;;;;4197288;28;20032;-61
2023/09/12 01:50:35;;;;;;;3.75;2.88;;;17.00;99.90;;;;;;4194620;28;20040;-62
2023/09/12 01:52:37;;;;;;;10.30;3.45;;;17.00;99.90;;;;;;4196848;28;20105;-59
2023/09/12 01:54:40;;;;;;;8.02;3.03;;;17.00;99.90;;;;;;4195689;28;20024;-60
2023/09/12 01:56:42;;;;;;;10.38;4.10;;;17.00;99.90;;;;;;4194713;28;20139;-58
2023/09/12 01:58:44;;;;;;;4.30;3.47;;;17.00;99.90;;;;;;4194638;28;20048;-62
2023/09/12 02:00:45;;;;;;;6.25;3.72;;;17.00;99.90;;;;;;4196482;28;20046;-59
2023/09/12 02:02:47;;;;;;;7.50;4.15;;;17.00;99.90;;;;;;4194540;28;20085;-61
2023/09/12 02:05:03;;;;;;;6.38;3.45;;;17.00;99.90;;;;;;4195607;28;20090;-61
2023/09/12 02:07:04;;;;;;;6.07;3.40;;;17.00;99.90;;;;;;4192891;28;20106;-61
2023/09/12 02:09:06;;;;;;;8.60;4.55;;;17.00;99.90;;;;;;4195669;28;20135;-60
2023/09/12 02:11:08;;;;;;;7.25;3.72;;;17.00;99.90;;;;;;4195286;28;20032;-59
2023/09/12 02:13:09;;;;;;;8.00;3.42;;;17.00;99.90;;;;;;4195716;28;20036;-58
2023/09/12 02:15:11;;;;;;;9.07;3.83;;;17.00;99.90;;;;;;4194451;28;20067;-59
2023/09/12 02:17:12;;;;;;;13.50;3.97;;;17.00;99.90;;;;;;4193664;28;20037;-60
2023/09/12 02:19:13;;;;;;;10.57;5.00;;;16.90;99.90;;;;;;4195306;28;20036;-60
2023/09/12 02:21:15;;;;;;;6.35;3.97;;;16.90;99.90;;;;;;4195064;28;20044;-59
2023/09/12 02:23:17;;;;;;;8.27;4.20;;;16.80;99.90;;;;;;4195548;28;20467;-61
2023/09/12 02:25:18;;;;;;;9.38;3.80;;;16.80;99.90;;;;;;4194737;28;20037;-63
2023/09/12 02:27:20;;;;;;;11.65;4.63;;;16.80;99.90;;;;;;4194342;28;20392;-61
2023/09/12 02:29:21;;;;;;;11.63;4.00;;;16.70;99.90;;;;;;4194747;28;20338;-60
2023/09/12 02:31:22;;;;;;;9.80;4.90;;;16.70;99.90;;;;;;4195235;28;20036;-61
2023/09/12 02:33:23;;;;;;;7.95;4.20;;;16.60;99.90;;;;;;4193744;28;20044;-58
2023/09/12 02:35:24;;;;;;;8.55;4.40;;;16.50;99.90;;;;;;4193866;28;20086;-61
2023/09/12 02:37:26;;;;;;;8.15;4.03;;;16.40;99.90;;;;;;4190467;28;20032;-61
2023/09/12 02:39:27;;;;;;;11.48;4.05;;;16.40;99.90;;;;;;4190992;28;20082;-60
2023/09/12 02:41:28;;;;;;;8.75;4.15;;;16.40;99.90;;;;;;4186609;28;20036;-59
2023/09/12 02:43:30;;;;;;;8.63;4.50;;;16.40;99.90;;;;;;4195463;28;20435;-60
2023/09/12 02:45:31;;;;;;;8.93;4.68;;;16.30;99.90;;;;;;4194284;28;20153;-59
2023/09/12 02:47:32;;;;;;;10.07;4.35;;;16.30;99.90;;;;;;4195458;28;20032;-61
2023/09/12 02:49:33;;;;;;;10.00;4.50;;;16.30;99.90;;;;;;4195092;28;20090;-61
2023/09/12 02:51:38;;;;;;;8.05;4.28;;;16.20;99.90;;;;;;4193129;28;20029;-60
2023/09/12 02:53:39;;;;;;;7.82;4.88;;;16.00;99.90;;;;;;4194103;28;20037;-60
2023/09/12 02:55:42;;;;;;;8.73;4.75;;;16.00;99.90;;;;;;4194906;28;20025;-62
2023/09/12 02:57:43;;;;;;;14.27;5.22;;;15.90;99.90;;;;;;4195085;28;20048;-60
2023/09/12 02:59:44;;;;;;;10.57;6.20;;;15.90;99.90;;;;;;4194406;28;20025;-58
2023/09/12 03:01:46;;;;;;;11.93;7.40;;;16.00;99.90;;;;;;4194338;28;20058;-59
2023/09/12 03:03:47;;;;;;;14.75;8.48;;;16.00;99.90;;;;;;4193977;28;20087;-60
2023/09/12 03:06:00;;;;;;;12.57;5.50;;;16.00;99.90;;;;;;4196014;28;20024;-61
2023/09/12 03:08:02;;;;;;;17.27;5.43;;;16.00;99.90;;;;;;4194304;28;20071;-57
2023/09/12 03:10:04;;;;;;;13.55;6.95;;;15.90;99.90;;;;;;4195347;28;20499;-60
2023/09/12 03:12:05;;;;;;;13.38;6.72;;;15.80;99.90;;;;;;4194612;28;20082;-60
2023/09/12 03:14:07;;;;;;;10.68;5.32;;;15.70;99.90;;;;;;4195804;28;20032;-60
2023/09/12 03:16:12;;;;;;;8.35;4.88;;;15.60;99.90;;;;;;4194338;28;20040;-61
2023/09/12 03:18:13;;;;;;;11.68;4.88;;;15.40;99.90;;;;;;4195408;28;20036;-60
2023/09/12 03:20:14;;;;;;;14.05;5.00;;;15.30;99.90;;;;;;4195540;28;20024;-60
2023/09/12 03:22:15;;;;;;;22.13;5.35;;;15.30;99.90;;;;;;4194770;28;20040;-60
2023/09/12 03:24:18;;;;;;;16.98;4.97;;;15.20;99.90;;;;;;4194538;28;20386;-60
2023/09/12 03:26:19;;;;;;;17.35;6.43;;;15.20;99.90;;;;;;4193202;28;20063;-61
2023/09/12 03:28:21;;;;;;;13.85;6.55;;;15.10;99.90;;;;;;4194418;28;20488;-62
2023/09/12 03:30:22;;;;;;;11.75;6.72;;;15.00;99.90;;;;;;4193200;28;20078;-61
2023/09/12 03:32:23;;;;;;;9.15;6.15;;;14.90;99.90;;;;;;4194669;28;20444;-61
2023/09/12 03:34:24;;;;;;;12.25;6.22;;;14.90;99.90;;;;;;4193257;28;20435;-62
2023/09/12 03:36:26;;;;;;;13.05;6.43;;;14.80;99.90;;;;;;4194829;28;20427;-62
2023/09/12 03:38:27;;;;;;;12.90;6.65;;;14.80;99.90;;;;;;4193008;28;20057;-62
2023/09/12 03:40:31;;;;;;;13.73;7.35;;;14.80;99.90;;;;;;4195387;28;20422;-63
2023/09/12 03:42:33;;;;;;;19.73;11.15;;;14.80;99.90;;;;;;4175741;28;20206;-58
2023/09/12 03:44:34;;;;;;;17.63;8.25;;;14.70;99.90;;;;;;4194811;28;20098;-60
2023/09/12 03:46:35;;;;;;;16.55;7.88;;;14.70;99.90;;;;;;4193258;28;20090;-60
2023/09/12 03:48:36;;;;;;;15.13;7.82;;;14.60;99.90;;;;;;4194783;28;20032;-63
2023/09/12 03:50:37;;;;;;;15.35;7.57;;;14.60;99.90;;;;;;4193591;28;20090;-63
2023/09/12 03:52:39;;;;;;;13.88;6.80;;;14.50;99.90;;;;;;4193650;28;21411;-62
2023/09/12 03:54:41;;;;;;;11.95;7.65;;;14.50;99.90;;;;;;4194255;28;20091;-62
2023/09/12 03:56:42;;;;;;;17.17;8.27;;;14.50;99.90;;;;;;4193167;28;20041;-59
2023/09/12 03:58:43;;;;;;;16.77;7.22;;;14.50;99.90;;;;;;4193658;28;20057;-63
2023/09/12 04:00:44;;;;;;;14.43;6.70;;;14.50;99.90;;;;;;4192946;28;20024;-63
2023/09/12 04:02:45;;;;;;;13.43;7.28;;;14.40;99.90;;;;;;4194355;28;20331;-61
2023/09/12 04:04:46;;;;;;;17.10;8.43;;;14.50;99.90;;;;;;4193126;28;20067;-61
2023/09/12 04:06:48;;;;;;;33.17;13.48;;;14.50;99.90;;;;;;4194037;28;20102;-60
2023/09/12 04:08:50;;;;;;;12.68;7.10;;;14.40;99.90;;;;;;4192439;28;20417;-63
2023/09/12 04:10:51;;;;;;;20.42;8.48;;;14.40;99.90;;;;;;4193376;28;20037;-59
2023/09/12 04:12:52;;;;;;;17.60;8.32;;;14.50;99.90;;;;;;4192983;28;20367;-64
2023/09/12 04:14:54;;;;;;;17.05;8.43;;;14.50;99.90;;;;;;4193903;28;20140;-58
2023/09/12 04:16:56;;;;;;;14.73;8.15;;;14.60;99.90;;;;;;4192957;28;20033;-59
2023/09/12 04:18:57;;;;;;;13.70;7.25;;;14.70;99.90;;;;;;4193205;28;20048;-59
2023/09/12 04:20:58;;;;;;;13.55;7.03;;;14.80;99.90;;;;;;4189140;28;20090;-62
2023/09/12 04:23:02;;;;;;;12.75;7.60;;;14.90;99.90;;;;;;4192565;28;20108;-64
2023/09/12 04:25:04;;;;;;;15.43;8.38;;;15.00;99.90;;;;;;4192838;28;20490;-59
2023/09/12 04:27:05;;;;;;;20.35;9.80;;;15.10;99.90;;;;;;4193055;28;20056;-62
2023/09/12 04:29:06;;;;;;;17.00;7.20;;;15.20;99.90;;;;;;4193463;28;20746;-65
2023/09/12 04:31:07;;;;;;;24.83;7.90;;;15.30;99.90;;;;;;4192772;28;20029;-63
2023/09/12 04:33:08;;;;;;;21.70;8.65;;;15.40;99.90;;;;;;4193340;28;20427;-61
2023/09/12 04:35:10;;;;;;;21.77;9.02;;;15.60;99.90;;;;;;4192340;28;20041;-62
2023/09/12 04:37:11;;;;;;;23.02;9.52;;;15.80;99.90;;;;;;4194120;28;20032;-61
2023/09/12 04:39:13;;;;;;;19.55;8.15;;;16.00;99.90;;;;;;4191829;28;20041;-60
2023/09/12 04:41:16;;;;;;;17.92;7.80;;;16.20;99.90;;;;;;4193786;28;20036;-60
2023/09/12 04:43:17;;;;;;;16.65;7.75;;;16.50;99.90;;;;;;4191823;28;20053;-62
2023/09/12 04:45:19;;;;;;;18.05;7.28;;;16.90;99.90;;;;;;4193546;28;20058;-58
2023/09/12 04:47:21;;;;;;;10.50;5.78;;;17.10;99.90;;;;;;4192355;28;20036;-61
2023/09/12 04:49:22;;;;;;;15.40;6.20;;;17.50;99.90;;;;;;4193010;28;20534;-64
2023/09/12 04:51:23;;;;;;;14.07;5.88;;;17.80;99.90;;;;;;4191217;28;20837;-58
2023/09/12 04:53:24;;;;;;;9.85;5.63;;;18.10;99.90;;;;;;4193525;28;20029;-60
2023/09/12 04:55:25;;;;;;;11.15;6.22;;;18.30;99.90;;;;;;4192933;28;20020;-63
2023/09/12 04:57:30;;;;;;;14.07;6.57;;;18.30;99.90;;;;;;4193748;28;20138;-60
2023/09/12 04:59:31;;;;;;;14.52;5.50;;;18.40;99.90;;;;;;4193077;28;20464;-61
2023/09/12 05:01:33;;;;;;;11.77;6.28;;;18.80;99.90;;;;;;4192080;28;20036;-61
2023/09/12 05:03:34;;;;;;;13.80;6.85;;;19.20;99.90;;;;;;4193139;28;20036;-60
2023/09/12 05:05:36;;;;;;;12.00;5.97;;;19.60;99.90;;;;;;4192543;28;20397;-61
2023/09/12 05:07:37;;;;;;;19.77;6.07;;;20.00;99.90;;;;;;4192460;28;20106;-60
2023/09/12 05:09:38;;;;;;;11.93;5.05;;;20.30;99.90;;;;;;4192108;28;20429;-60
2023/09/12 05:11:39;;;;;;;15.23;5.18;;;20.50;99.90;;;;;;4193825;28;20094;-60
2023/09/12 05:13:41;;;;;;;16.48;5.55;;;20.80;99.90;;;;;;4191577;28;20032;-58
2023/09/12 05:15:42;;;;;;;14.30;6.57;;;21.00;99.90;;;;;;4192579;28;20101;-59
2023/09/12 05:17:43;;;;;;;16.30;5.22;;;21.10;99.90;;;;;;4192511;28;20017;-60
2023/09/12 05:19:44;;;;;;;22.80;6.63;;;21.10;99.90;;;;;;4192855;28;20048;-61
2023/09/12 05:21:45;;;;;;;15.20;6.00;;;21.00;99.90;;;;;;4191309;28;20443;-62
2023/09/12 05:23:46;;;;;;;17.80;5.90;;;21.10;99.90;;;;;;4192739;28;20049;-63
2023/09/12 05:25:47;;;;;;;17.15;6.05;;;21.10;99.90;;;;;;4192676;28;20025;-63
2023/09/12 05:27:48;;;;;;;19.33;6.60;;;21.40;99.90;;;;;;4193731;28;20086;-62
2023/09/12 05:29:50;;;;;;;21.50;6.88;;;21.80;99.90;;;;;;4192302;28;20070;-60
2023/09/12 05:31:51;;;;;;;21.45;7.72;;;21.90;99.90;;;;;;4191450;28;20029;-61
2023/09/12 05:33:52;;;;;;;22.80;7.15;;;22.10;99.90;;;;;;4193145;28;20358;-63
2023/09/12 05:35:53;;;;;;;25.63;6.95;;;22.20;99.90;;;;;;4192418;28;20029;-61
2023/09/12 05:37:54;;;;;;;29.23;7.55;;;22.20;99.90;;;;;;4193582;28;20016;-61
2023/09/12 05:39:55;;;;;;;35.38;6.28;;;22.30;99.90;;;;;;4192192;28;20131;-60
2023/09/12 05:41:56;;;;;;;33.00;6.65;;;22.10;99.90;;;;;;4192772;28;20477;-59
2023/09/12 05:43:57;;;;;;;34.90;8.25;;;22.00;99.90;;;;;;4192186;28;20067;-60
2023/09/12 05:45:58;;;;;;;48.58;8.10;;;21.90;99.90;;;;;;4174799;28;20102;-61
2023/09/12 05:48:00;;;;;;;34.65;6.80;;;21.90;99.90;;;;;;4191054;28;20173;-57
2023/09/12 05:50:04;;;;;;;39.20;7.22;;;21.80;99.90;;;;;;4192832;28;20032;-62
2023/09/12 05:52:05;;;;;;;33.55;6.70;;;22.00;99.90;;;;;;4192001;28;20476;-60
2023/09/12 05:54:07;;;;;;;27.30;6.35;;;22.10;99.90;;;;;;4193416;28;20105;-62
2023/09/12 05:56:09;;;;;;;27.52;7.50;;;22.50;99.90;;;;;;4192005;28;20093;-61
2023/09/12 05:58:10;;;;;;;36.20;7.18;;;22.80;99.90;;;;;;4192691;28;20090;-61
2023/09/12 06:00:11;;;;;;;19.85;7.07;;;23.30;99.90;;;;;;4192118;28;20102;-61
2023/09/12 06:02:13;;;;;;;25.25;7.60;;;23.90;99.90;;;;;;4192565;28;20033;-63
2023/09/12 06:04:14;;;;;;;22.00;6.68;;;24.40;99.90;;;;;;4192627;28;20481;-64
2023/09/12 06:06:15;;;;;;;19.35;7.35;;;24.80;99.90;;;;;;4191571;28;20033;-59
2023/09/12 06:08:16;;;;;;;27.00;6.68;;;25.20;99.90;;;;;;4192693;28;20139;-60
2023/09/12 06:10:17;;;;;;;24.80;6.60;;;25.00;99.90;;;;;;4191558;28;20048;-60
2023/09/12 06:12:18;;;;;;;26.58;7.90;;;24.30;99.90;;;;;;4193425;28;20437;-61
2023/09/12 06:14:19;;;;;;;22.67;7.25;;;24.00;99.90;;;;;;4192190;28;20078;-56
2023/09/12 06:16:21;;;;;;;18.77;7.28;;;24.50;99.90;;;;;;4192682;28;20036;-61
2023/09/12 06:18:23;;;;;;;31.10;7.78;;;25.00;99.90;;;;;;4192606;28;20146;-58
2023/09/12 06:20:25;;;;;;;23.35;7.05;;;24.80;99.90;;;;;;4195937;28;20044;-62
2023/09/12 06:22:26;;;;;;;23.55;7.60;;;24.70;99.90;;;;;;4194043;28;20819;-63
2023/09/12 06:24:27;;;;;;;16.70;6.13;;;24.80;99.90;;;;;;4195234;28;20029;-61
2023/09/12 06:26:28;;;;;;;20.42;7.47;;;25.10;99.90;;;;;;4194298;28;20494;-61
2023/09/12 06:28:30;;;;;;;19.13;6.97;;;25.00;99.90;;;;;;4195600;28;20090;-63
2023/09/12 06:30:31;;;;;;;24.00;6.75;;;25.70;99.70;;;;;;4194921;28;20102;-60
2023/09/12 06:32:32;;;;;;;20.40;6.47;;;26.40;98.90;;;;;;4195629;28;20085;-63
2023/09/12 06:34:34;;;;;;;15.18;6.90;;;26.90;98.20;;;;;;4194792;28;20040;-63
2023/09/12 06:36:35;;;;;;;21.85;7.55;;;26.30;97.80;;;;;;4194225;28;20048;-62
2023/09/12 06:38:36;;;;;;;20.75;7.72;;;25.80;98.20;;;;;;4195037;28;20032;-60
2023/09/12 06:40:37;;;;;;;23.50;8.65;;;25.50;98.50;;;;;;4194877;28;20025;-62
2023/09/12 06:42:38;;;;;;;18.05;6.57;;;25.30;98.70;;;;;;4195771;28;20032;-62
2023/09/12 06:44:39;;;;;;;18.00;7.55;;;25.10;98.80;;;;;;4194669;28;20469;-62
2023/09/12 06:46:40;;;;;;;30.63;7.38;;;24.70;99.10;;;;;;4195644;28;20098;-61
2023/09/12 06:48:41;;;;;;;19.67;7.72;;;24.30;99.50;;;;;;4194458;28;20048;-64
2023/09/12 06:50:43;;;;;;;19.60;7.40;;;24.00;99.80;;;;;;4194948;28;20032;-63
2023/09/12 06:52:44;;;;;;;18.13;6.53;;;23.90;99.90;;;;;;4194834;28;20491;-62
2023/09/12 06:54:45;;;;;;;18.60;7.43;;;24.00;99.90;;;;;;4195004;28;20044;-61
2023/09/12 06:56:46;;;;;;;16.75;7.43;;;23.80;99.90;;;;;;4193723;28;20086;-63
2023/09/12 06:58:48;;;;;;;20.25;6.68;;;23.90;99.90;;;;;;4195666;28;20032;-64
2023/09/12 07:00:49;;;;;;;17.42;6.80;;;23.90;99.90;;;;;;4194928;28;20046;-62
2023/09/12 07:02:50;;;;;;;17.77;5.97;;;23.80;99.90;;;;;;4193977;28;20094;-65
2023/09/12 07:04:51;;;;;;;26.25;6.95;;;23.80;99.90;;;;;;4195230;28;20038;-62
2023/09/12 07:06:52;;;;;;;25.40;6.95;;;23.90;99.90;;;;;;4193647;28;20040;-62
2023/09/12 07:08:53;;;;;;;16.35;6.00;;;23.90;99.90;;;;;;4195319;28;20028;-64
2023/09/12 07:10:56;;;;;;;22.75;6.75;;;24.20;99.90;;;;;;4193719;28;20045;-62
2023/09/12 07:12:57;;;;;;;15.38;6.38;;;24.70;99.50;;;;;;4194948;28;20555;-59
2023/09/12 07:14:58;;;;;;;17.30;6.85;;;24.60;99.30;;;;;;4193109;28;20614;-63
2023/09/12 07:16:59;;;;;;;17.70;5.70;;;24.30;99.60;;;;;;4195437;28;20082;-61
2023/09/12 07:19:00;;;;;;;13.98;5.63;;;24.30;99.60;;;;;;4194115;28;20125;-63
2023/09/12 07:21:03;;;;;;;14.40;5.50;;;24.60;99.40;;;;;;4193473;28;20094;-59
2023/09/12 07:23:04;;;;;;;17.90;6.35;;;24.70;99.10;;;;;;4193784;28;20510;-61
2023/09/12 07:25:09;;;;;;;9.43;5.30;;;24.80;99.00;;;;;;4177495;28;20110;-58
2023/09/12 07:27:10;;;;;;;26.23;6.30;;;25.00;98.90;;;;;;4193615;28;20033;-62
2023/09/12 07:29:12;;;;;;;14.35;6.15;;;25.20;98.60;;;;;;4195469;28;20395;-63
2023/09/12 07:31:14;;;;;;;15.63;5.68;;;25.30;98.30;;;;;;4193948;28;20120;-62
2023/09/12 07:33:15;;;;;;;22.05;5.28;;;25.40;98.30;;;;;;4193814;28;20040;-63
2023/09/12 07:35:16;;;;;;;15.07;5.00;;;25.70;98.20;;;;;;4194487;28;20306;-62
2023/09/12 07:37:17;;;;;;;19.90;5.78;;;26.00;98.00;;;;;;4194390;28;20379;-62
2023/09/12 07:39:19;;;;;;;11.30;4.43;;;26.00;97.80;;;;;;4193872;28;20048;-59
2023/09/12 07:41:20;;;;;;;21.65;4.95;;;26.40;97.70;;;;;;4193885;28;20106;-63
2023/09/12 07:43:21;;;;;;;16.60;5.30;;;26.30;97.30;;;;;;4194943;28;20033;-64
2023/09/12 07:45:22;;;;;;;18.60;5.13;;;26.10;97.40;;;;;;4194017;28;20089;-60
2023/09/12 07:47:23;;;;;;;15.27;6.40;;;26.10;97.40;;;;;;4194354;28;20070;-61
2023/09/12 07:49:26;;;;;;;14.85;5.28;;;25.90;97.60;;;;;;4193635;28;20037;-63
2023/09/12 07:51:27;;;;;;;10.20;4.35;;;25.80;97.70;;;;;;4195006;28;20086;-63
2023/09/12 07:53:28;;;;;;;18.05;5.93;;;25.70;97.80;;;;;;4193054;28;20495;-61
2023/09/12 07:55:33;;;;;;;19.55;5.53;;;25.50;97.90;;;;;;4194903;28;20044;-64
2023/09/12 07:57:34;;;;;;;22.80;6.43;;;25.50;98.10;;;;;;4193074;28;20082;-63
2023/09/12 07:59:35;;;;;;;15.60;5.43;;;25.40;98.00;;;;;;4193869;28;20090;-62
2023/09/12 08:01:36;;;;;;;22.48;5.53;;;25.20;98.20;;;;;;4193368;28;20127;-62
2023/09/12 08:03:39;;;;;;;17.98;5.10;;;25.20;98.50;;;;;;4192914;28;20129;-62
2023/09/12 08:05:40;;;;;;;20.40;5.72;;;25.10;98.40;;;;;;4193334;28;20109;-63
2023/09/12 08:07:41;;;;;;;23.45;6.57;;;25.10;98.40;;;;;;4193833;28;20029;-60
2023/09/12 08:09:48;;;;;;;17.25;5.32;;;25.10;98.50;;;;;;4194023;28;20098;-61
2023/09/12 08:11:49;;;;;;;15.77;5.32;;;25.10;98.50;;;;;;4192967;28;20032;-62
2023/09/12 08:13:51;;;;;;;16.77;5.30;;;25.30;98.40;;;;;;4194039;28;20097;-63
2023/09/12 08:15:52;;;;;;;13.40;5.38;;;25.30;98.30;;;;;;4175032;28;20037;-60
2023/09/12 08:17:54;;;;;;;18.58;5.88;;;25.50;98.30;;;;;;4193335;28;20086;-63
2023/09/12 08:19:55;;;;;;;15.15;5.93;;;25.50;98.20;;;;;;4193252;28;20138;-63
2023/09/12 08:21:56;;;;;;;15.23;5.63;;;25.60;98.20;;;;;;4193991;28;20070;-62
2023/09/12 08:23:57;;;;;;;19.00;5.88;;;25.30;98.20;;;;;;4192533;28;20120;-64
2023/09/12 08:25:58;;;;;;;20.58;5.60;;;25.30;98.20;;;;;;4193344;28;20036;-62
2023/09/12 08:27:59;;;;;;;16.15;5.60;;;25.20;98.40;;;;;;4193498;28;20036;-63
2023/09/12 08:30:01;;;;;;;14.95;5.57;;;25.10;98.50;;;;;;4194315;28;20024;-64
2023/09/12 08:32:02;;;;;;;14.55;6.97;;;25.30;98.40;;;;;;4192693;28;20101;-62
2023/09/12 08:34:04;;;;;;;20.45;7.10;;;25.60;98.20;;;;;;4193392;28;20028;-63
2023/09/12 08:36:05;;;;;;;15.45;6.90;;;25.70;98.00;;;;;;4192446;28;20106;-62
2023/09/12 08:38:06;;;;;;;13.60;7.30;;;25.90;97.80;;;;;;4193415;28;20028;-63
2023/09/12 08:40:10;;;;;;;21.42;7.45;;;26.10;97.50;;;;;;4193458;28;20116;-61
2023/09/12 08:42:15;;;;;;;16.67;6.30;;;26.30;97.30;;;;;;4191645;28;20127;-63
2023/09/12 08:44:17;;;;;;;20.15;6.00;;;26.30;97.00;;;;;;4193197;28;20094;-62
2023/09/12 08:46:20;;;;;;;19.40;6.57;;;26.40;97.00;;;;;;4192812;28;20105;-63
2023/09/12 08:48:23;;;;;;;18.08;6.32;;;26.60;96.80;;;;;;4193870;28;20189;-62
2023/09/12 08:50:24;;;;;;;12.73;5.20;;;26.70;96.70;;;;;;4191606;28;20109;-62
2023/09/12 08:52:25;;;;;;;16.13;5.15;;;26.80;96.50;;;;;;4193634;28;20063;-61
2023/09/12 08:54:26;;;;;;;16.85;6.15;;;27.00;96.20;;;;;;4193048;28;20101;-62
2023/09/12 08:56:27;;;;;;;9.25;4.05;;;27.20;96.00;;;;;;4194036;28;20024;-60
2023/09/12 08:58:30;;;;;;;15.18;4.75;;;27.40;95.80;;;;;;4193354;28;20499;-62
2023/09/12 09:00:32;;;;;;;12.23;4.20;;;27.30;95.50;;;;;;4193175;28;20098;-61
2023/09/12 09:02:35;;;;;;;16.33;4.90;;;27.20;95.60;;;;;;4191993;28;20042;-62
2023/09/12 09:04:39;;;;;;;9.48;4.25;;;27.30;95.60;;;;;;4193853;28;20048;-63
2023/09/12 09:06:41;;;;;;;14.70;4.68;;;27.30;95.50;;;;;;4192337;28;20552;-61
2023/09/12 09:08:44;;;;;;;12.15;4.20;;;27.10;95.50;;;;;;4193288;28;20465;-61
2023/09/12 09:11:05;;;;;;;16.25;3.92;;;27.00;95.50;;;;;;4192491;28;20040;-64
2023/09/12 09:13:07;;;;;;;9.68;3.95;;;27.30;95.30;;;;;;4193267;28;20109;-60
2023/09/12 09:15:27;;;;;;;13.10;3.60;;;27.50;95.20;;;;;;4192387;28;20097;-61
2023/09/12 09:17:29;;;;;;;11.30;3.42;;;27.70;94.20;;;;;;4192735;28;20036;-63
2023/09/12 09:19:43;;;;;;;11.43;3.42;;;27.30;94.80;;;;;;4192391;28;20111;-62
2023/09/12 09:21:44;;;;;;;8.55;3.50;;;27.20;94.60;;;;;;4192333;28;20522;-63
2023/09/12 09:23:47;;;;;;;8.73;3.72;;;27.20;94.80;;;;;;4193010;28;20020;-62
2023/09/12 09:25:53;;;;;;;11.35;3.13;;;27.30;94.50;;;;;;4192629;28;20091;-64
2023/09/12 09:27:54;;;;;;;8.98;3.42;;;27.60;94.30;;;;;;4192135;28;20090;-60
2023/09/12 09:29:55;;;;;;;8.73;3.00;;;27.90;94.30;;;;;;4193149;28;20093;-62
2023/09/12 09:31:59;;;;;;;9.55;3.13;;;28.30;93.90;;;;;;4192732;28;20029;-62
2023/09/12 09:34:01;;;;;;;7.95;3.17;;;28.20;93.80;;;;;;4192420;28;20079;-65
2023/09/12 09:36:04;;;;;;;15.38;3.85;;;28.00;93.80;;;;;;4193439;28;20814;-60
2023/09/12 09:38:07;;;;;;;10.85;3.60;;;27.90;93.70;;;;;;4192412;28;20507;-60
2023/09/12 09:40:09;;;;;;;9.52;3.75;;;27.80;94.00;;;;;;4193471;28;20090;-61
2023/09/12 09:42:13;;;;;;;7.03;3.50;;;27.70;93.90;;;;;;4192554;28;20020;-58
2023/09/12 09:44:16;;;;;;;11.85;3.47;;;27.90;93.80;;;;;;4193846;28;20028;-60
2023/09/12 09:46:18;;;;;;;6.65;2.75;;;27.90;93.30;;;;;;4173372;28;20037;-59
2023/09/12 09:48:24;;;;;;;6.53;2.72;;;28.00;93.20;;;;;;4192705;28;20381;-62
2023/09/12 09:50:26;;;;;;;7.65;3.42;;;28.00;92.60;;;;;;4191866;28;20567;-60
2023/09/12 09:52:27;;;;;;;4.70;2.90;;;28.00;92.70;;;;;;4192791;28;20443;-60
2023/09/12 09:54:28;;;;;;;9.23;3.08;;;28.10;92.60;;;;;;4194528;28;20075;-62
2023/09/12 09:56:31;;;;;;;6.90;3.13;;;28.10;92.60;;;;;;4196696;28;20394;-62
2023/09/12 09:58:33;;;;;;;11.38;3.58;;;28.30;92.50;;;;;;4194978;28;20354;-61
2023/09/12 10:00:37;;;;;;;4.82;3.00;;;28.40;92.30;;;;;;4178372;28;20049;-61
2023/09/12 10:02:39;;;;;;;5.00;3.65;;;28.30;91.90;;;;;;4195088;28;20040;-60
2023/09/12 10:04:44;;;;;;;9.05;5.00;;;28.40;91.90;;;;;;4195703;28;20067;-57
2023/09/12 10:06:47;;;;;;;15.98;6.18;;;28.30;91.60;;;;;;4195350;28;20041;-63
2023/09/12 10:08:53;;;;;;;8.52;4.28;;;28.10;91.40;;;;;;4195305;28;20935;-61
2023/09/12 10:10:54;;;;;;;8.55;3.40;;;28.00;91.40;;;;;;4194953;28;20036;-59
2023/09/12 10:12:57;;;;;;;4.00;3.25;;;27.90;91.40;;;;;;4194713;28;20554;-60
2023/09/12 10:15:01;;;;;;;8.57;3.88;;;27.80;91.40;;;;;;4195677;28;20105;-60
2023/09/12 10:17:02;;;;;;;12.48;4.00;;;27.70;91.50;;;;;;4194796;28;20098;-60
2023/09/12 10:19:23;;;;;;;8.77;3.83;;;27.70;91.60;;;;;;4195327;28;20041;-63
2023/09/12 10:21:30;;;;;;;10.52;3.85;;;27.80;91.40;;;;;;4195247;28;20040;-61
2023/09/12 10:23:43;;;;;;;7.38;3.65;;;28.00;91.50;;;;;;4195964;28;20050;-61
2023/09/12 10:25:45;;;;;;;5.35;2.78;;;28.20;91.60;;;;;;4195245;28;20086;-61
2023/09/12 10:27:47;;;;;;;4.88;2.75;;;28.40;91.30;;;;;;4195630;28;20040;-61
2023/09/12 10:29:52;;;;;;;7.97;2.85;;;28.40;91.30;;;;;;4195461;28;20056;-59